Burewala Weather



Burewala's Current Weather

Temprature 20.924o clear sky

clear sky

Rain: 0 %

Min Temprature20.924o
Max Temprature20.924o
Humidity71
Wind Speed1.76 m/h
Sun Rise06:41:48
Sun Set18:03:51
Current Time: 23-Feb-2019 16:32:20
Lat/Lon: 30.16, 72.68




Burewala's Geo Location




Burewala's Weather Forecast

Time Overall Temp Min Temp Max Temp Humidity Wind Speed Rain
23-Feb-2019 (Sat)
17:00:00 clear sky 20.490 20.490 20.924 71 1.76 m/h 0 %
20:00:00 clear sky 15.610 15.610 15.933 73 1.72 m/h 0 %
23:00:00 few clouds 13.120 13.120 13.340 82 1.57 m/h 0 %
24-Feb-2019 (Sun)
02:00:00 broken clouds 12.380 12.380 12.485 84 1.21 m/h 0 %
05:00:00 scattered clouds 12.017 12.017 12.017 86 1.46 m/h 0 %
08:00:00 scattered clouds 13.378 13.378 13.378 79 1.76 m/h 0 %
11:00:00 clear sky 20.099 20.099 20.099 89 2.71 m/h 0 %
14:00:00 clear sky 21.531 21.531 21.531 83 3.22 m/h 0 %
17:00:00 broken clouds 20.571 20.571 20.571 70 2.65 m/h 0 %
20:00:00 broken clouds 16.843 16.843 16.843 72 2.41 m/h 0 %
23:00:00 broken clouds 14.661 14.661 14.661 79 1.26 m/h 0 %
25-Feb-2019 (Mon)
02:00:00 clear sky 13.205 13.205 13.205 82 1.67 m/h 0 %
05:00:00 few clouds 11.802 11.802 11.802 86 1.41 m/h 0 %
08:00:00 broken clouds 12.120 12.120 12.120 88 2.52 m/h 0 %
11:00:00 few clouds 16.122 16.122 16.122 92 4.11 m/h 0 %
14:00:00 clear sky 19.173 19.173 19.173 94 2.27 m/h 0 %
17:00:00 few clouds 19.187 19.187 19.187 78 2.16 m/h 0 %
20:00:00 scattered clouds 15.923 15.923 15.923 78 3.21 m/h 0 %
23:00:00 clear sky 13.217 13.217 13.217 91 3.26 m/h 0 %
26-Feb-2019 (Tue)
02:00:00 scattered clouds 11.776 11.776 11.776 94 3.46 m/h 0 %
05:00:00 light rain 11.272 11.272 11.272 92 3.36 m/h 2 %
08:00:00 light rain 11.407 11.407 11.407 92 3.07 m/h 1 %
11:00:00 broken clouds 14.267 14.267 14.267 96 3.82 m/h 0 %
14:00:00 scattered clouds 16.971 16.971 16.971 91 4.06 m/h 0 %
17:00:00 light rain 16.414 16.414 16.414 79 3.66 m/h 2 %
20:00:00 light rain 13.911 13.911 13.911 78 2.42 m/h 1 %
23:00:00 scattered clouds 12.498 12.498 12.498 85 1.67 m/h 0 %
27-Feb-2019 (Wed)
02:00:00 clear sky 10.806 10.806 10.806 90 1.31 m/h 0 %
05:00:00 clear sky 9.444 9.444 9.444 90 1.75 m/h 0 %
08:00:00 clear sky 10.815 10.815 10.815 86 1.32 m/h 0 %
11:00:00 clear sky 16.945 16.945 16.945 96 2.06 m/h 0 %
14:00:00 clear sky 18.711 18.711 18.711 89 2.1 m/h 0 %
17:00:00 clear sky 18.523 18.523 18.523 70 2.11 m/h 0 %
20:00:00 few clouds 14.367 14.367 14.367 66 2.62 m/h 0 %
23:00:00 scattered clouds 13.016 13.016 13.016 72 4.12 m/h 0 %
28-Feb-2019 (Thu)
02:00:00 broken clouds 13.016 13.016 13.016 79 3.81 m/h 0 %
05:00:00 scattered clouds 12.038 12.038 12.038 86 3.21 m/h 0 %
08:00:00 clear sky 12.440 12.440 12.440 86 4.46 m/h 0 %
11:00:00 few clouds 17.597 17.597 17.597 91 2.96 m/h 0 %
14:00:00 few clouds 19.454 19.454 19.454 86 3.12 m/h 0 %


Burewala's Tourist Spots

Historical Places in Burewala

Famous Cities (60)